createdAt,value
2022-11-27T00:01:32.855Z,5.30
2022-11-27T00:04:00.937Z,5.30
2022-11-27T00:06:30.651Z,5.40
2022-11-27T00:08:59.715Z,5.50
2022-11-27T00:11:30.055Z,5.40
2022-11-27T00:13:58.516Z,5.40
2022-11-27T00:16:29.062Z,5.40
2022-11-27T00:18:57.472Z,5.40
2022-11-27T00:21:27.891Z,5.30
2022-11-27T00:23:58.096Z,5.30
2022-11-27T00:26:26.227Z,5.20
2022-11-27T00:28:54.195Z,5.40
2022-11-27T00:31:27.097Z,5.50
2022-11-27T00:33:57.642Z,5.50
2022-11-27T00:36:26.092Z,5.50
2022-11-27T00:38:54.140Z,5.40
2022-11-27T00:41:24.177Z,5.40
2022-11-27T00:43:52.775Z,5.30
2022-11-27T00:46:26.855Z,5.30
2022-11-27T00:48:58.273Z,5.30
2022-11-27T00:51:27.079Z,5.20
2022-11-27T00:53:55.828Z,5.30
2022-11-27T00:56:26.020Z,5.40
2022-11-27T00:58:54.488Z,5.30
2022-11-27T01:01:24.251Z,5.30
2022-11-27T01:03:52.537Z,5.30
2022-11-27T01:06:22.200Z,5.30
2022-11-27T01:08:50.232Z,5.20
2022-11-27T01:11:19.832Z,5.20
2022-11-27T01:13:48.284Z,5.20
2022-11-27T01:16:18.466Z,5.20
2022-11-27T01:18:47.924Z,5.20
2022-11-27T01:21:18.220Z,5.20
2022-11-27T01:23:47.903Z,5.10
2022-11-27T01:26:17.556Z,5.10
2022-11-27T01:28:46.061Z,5.10
2022-11-27T01:31:16.585Z,5.20
2022-11-27T01:33:45.255Z,5.30
2022-11-27T01:36:14.876Z,5.30
2022-11-27T01:38:43.286Z,5.30
2022-11-27T01:41:15.889Z,5.20
2022-11-27T01:43:45.411Z,5.20
2022-11-27T01:46:32.414Z,5.30
2022-11-27T01:49:15.871Z,5.30
2022-11-27T01:51:50.755Z,5.20
2022-11-27T01:54:20.095Z,5.20
2022-11-27T01:56:53.040Z,5.10
2022-11-27T01:59:20.994Z,5.00
2022-11-27T02:01:49.097Z,4.90
2022-11-27T02:04:17.188Z,4.90
2022-11-27T02:06:45.304Z,4.80
2022-11-27T02:09:13.513Z,4.80
2022-11-27T02:11:52.460Z,4.90
2022-11-27T02:14:28.716Z,4.90
2022-11-27T02:17:03.815Z,4.80
2022-11-27T02:19:50.858Z,4.80
2022-11-27T02:22:33.738Z,4.80
2022-11-27T02:25:03.966Z,4.80
2022-11-27T02:27:53.176Z,4.80
2022-11-27T02:30:22.714Z,4.80
2022-11-27T02:32:58.190Z,4.80
2022-11-27T02:35:31.379Z,4.90
2022-11-27T02:38:03.378Z,4.80
2022-11-27T02:40:36.701Z,4.80
2022-11-27T02:43:10.571Z,4.80
2022-11-27T02:45:43.026Z,4.80
2022-11-27T02:48:12.584Z,4.90
2022-11-27T02:50:43.120Z,4.90
2022-11-27T02:53:14.265Z,4.80
2022-11-27T02:55:44.603Z,4.80
2022-11-27T02:58:17.813Z,4.90
2022-11-27T03:00:48.847Z,4.80
2022-11-27T03:03:21.909Z,4.90
2022-11-27T03:05:53.264Z,4.90
2022-11-27T03:08:26.696Z,4.90
2022-11-27T03:11:01.895Z,4.80
2022-11-27T03:13:31.299Z,4.90
2022-11-27T03:16:11.354Z,4.80
2022-11-27T03:18:46.760Z,4.80
2022-11-27T03:21:22.426Z,4.80
2022-11-27T03:23:50.635Z,4.70
2022-11-27T03:26:18.608Z,4.70
2022-11-27T03:28:48.104Z,4.60
2022-11-27T03:31:17.765Z,4.60
2022-11-27T03:33:46.099Z,4.60
2022-11-27T03:36:16.144Z,4.60
2022-11-27T03:38:46.189Z,4.60
2022-11-27T03:41:24.140Z,4.50
2022-11-27T03:44:05.257Z,4.50
2022-11-27T03:46:46.698Z,4.60
2022-11-27T03:49:24.296Z,4.60
2022-11-27T03:51:55.288Z,4.60
2022-11-27T03:54:36.227Z,4.60
2022-11-27T03:57:12.630Z,4.70
2022-11-27T03:59:44.408Z,4.70
2022-11-27T04:02:15.852Z,4.80
2022-11-27T04:04:44.106Z,4.70
2022-11-27T04:07:18.236Z,4.70
2022-11-27T04:09:46.316Z,4.60
2022-11-27T04:12:14.607Z,4.60
2022-11-27T04:14:42.736Z,4.60
2022-11-27T04:17:10.715Z,4.50
2022-11-27T04:19:39.933Z,4.50
2022-11-27T04:22:07.905Z,4.40
2022-11-27T04:24:35.865Z,4.50
2022-11-27T04:27:03.886Z,4.40
2022-11-27T04:29:31.812Z,4.40
2022-11-27T04:31:59.756Z,4.40
2022-11-27T04:34:27.635Z,4.30
2022-11-27T04:36:56.941Z,4.30
2022-11-27T04:39:24.952Z,4.30
2022-11-27T04:41:52.853Z,4.40
2022-11-27T04:44:22.600Z,4.40
2022-11-27T04:46:50.572Z,4.50
2022-11-27T04:49:18.688Z,4.50
2022-11-27T04:51:46.874Z,4.60
2022-11-27T04:54:16.397Z,4.70
2022-11-27T04:56:44.511Z,4.60
2022-11-27T04:59:12.485Z,4.60
2022-11-27T05:01:40.548Z,4.50
2022-11-27T05:04:08.662Z,4.40
2022-11-27T05:06:37.046Z,4.40
2022-11-27T05:09:05.292Z,4.40
2022-11-27T05:11:35.337Z,4.40
2022-11-27T05:14:22.773Z,4.40
2022-11-27T05:16:52.657Z,4.50
2022-11-27T05:19:23.459Z,4.60
2022-11-27T05:21:52.603Z,4.70
2022-11-27T05:24:22.397Z,4.60
2022-11-27T05:26:52.187Z,4.60
2022-11-27T05:29:20.570Z,4.50
2022-11-27T05:31:48.590Z,4.50
2022-11-27T05:34:16.998Z,4.40
2022-11-27T05:36:44.992Z,4.40
2022-11-27T05:39:13.428Z,4.40
2022-11-27T05:41:43.939Z,4.30
2022-11-27T05:44:15.426Z,4.30
2022-11-27T05:46:44.594Z,4.30
2022-11-27T05:49:14.723Z,4.30
2022-11-27T05:51:49.145Z,4.40
2022-11-27T05:54:18.984Z,4.40
2022-11-27T05:56:47.244Z,4.30
2022-11-27T05:59:16.901Z,4.30
2022-11-27T06:01:45.000Z,4.30
2022-11-27T06:04:12.891Z,4.20
2022-11-27T06:06:40.892Z,4.20
2022-11-27T06:09:12.805Z,4.20
2022-11-27T06:11:42.638Z,4.30
2022-11-27T06:14:11.226Z,4.30
2022-11-27T06:16:40.804Z,4.40
2022-11-27T06:19:09.470Z,4.30
2022-11-27T06:21:38.020Z,4.30
2022-11-27T06:24:06.568Z,4.30
2022-11-27T06:26:34.913Z,4.30
2022-11-27T06:29:03.164Z,4.30
2022-11-27T06:31:32.748Z,4.30
2022-11-27T06:34:02.707Z,4.40
2022-11-27T06:36:32.463Z,4.40
2022-11-27T06:39:01.409Z,4.30
2022-11-27T06:41:29.694Z,4.20
2022-11-27T06:44:00.757Z,4.20
2022-11-27T06:46:30.412Z,4.20
2022-11-27T06:48:58.886Z,4.20
2022-11-27T06:51:30.077Z,4.20
2022-11-27T06:53:59.591Z,4.20
2022-11-27T06:56:29.670Z,4.20
2022-11-27T06:58:59.146Z,4.10
2022-11-27T07:01:28.946Z,4.10
2022-11-27T07:03:57.343Z,4.00
2022-11-27T07:06:26.943Z,4.00
2022-11-27T07:08:56.855Z,4.00
2022-11-27T07:11:26.833Z,4.00
2022-11-27T07:13:58.259Z,4.00
2022-11-27T07:16:27.100Z,4.00
2022-11-27T07:18:59.269Z,4.00
2022-11-27T07:21:27.542Z,3.90
2022-11-27T07:23:57.576Z,3.90
2022-11-27T07:26:27.324Z,3.90
2022-11-27T07:28:55.932Z,3.90
2022-11-27T07:31:26.634Z,4.00
2022-11-27T07:33:54.575Z,3.90
2022-11-27T07:36:24.220Z,4.10
2022-11-27T07:38:52.591Z,4.10
2022-11-27T07:41:22.504Z,4.10
2022-11-27T07:43:51.198Z,4.20
2022-11-27T07:46:21.667Z,4.20
2022-11-27T07:48:50.046Z,4.20
2022-11-27T07:51:19.455Z,4.20
2022-11-27T07:53:48.561Z,4.20
2022-11-27T07:56:17.306Z,4.10
2022-11-27T07:58:46.990Z,4.10
2022-11-27T08:01:17.286Z,4.10
2022-11-27T08:03:45.688Z,4.10
2022-11-27T08:06:19.456Z,4.10
2022-11-27T08:08:48.009Z,4.10
2022-11-27T08:11:18.234Z,4.20
2022-11-27T08:13:58.999Z,4.20
2022-11-27T08:16:27.738Z,4.20
2022-11-27T08:18:55.805Z,4.30
2022-11-27T08:21:24.328Z,4.30
2022-11-27T08:23:52.542Z,4.30
2022-11-27T08:26:21.064Z,4.30
2022-11-27T08:28:53.412Z,4.30
2022-11-27T08:31:21.668Z,4.30
2022-11-27T08:33:49.741Z,4.50
2022-11-27T08:36:18.529Z,4.60
2022-11-27T08:39:07.052Z,4.50
2022-11-27T08:41:36.175Z,4.50
2022-11-27T08:44:09.157Z,4.50
2022-11-27T08:46:37.646Z,4.40
2022-11-27T08:49:05.818Z,4.40
2022-11-27T08:51:33.719Z,4.40
2022-11-27T08:54:01.608Z,4.30
2022-11-27T08:56:29.549Z,4.40
2022-11-27T08:58:57.471Z,4.40
2022-11-27T09:01:29.337Z,4.40
2022-11-27T09:03:57.789Z,4.40
2022-11-27T09:06:28.644Z,4.50
2022-11-27T09:08:57.680Z,4.50
2022-11-27T09:11:26.294Z,4.50
2022-11-27T09:13:54.656Z,4.60
2022-11-27T09:16:23.938Z,4.60
2022-11-27T09:18:54.992Z,4.60
2022-11-27T09:21:24.494Z,4.80
2022-11-27T09:23:54.894Z,4.80
2022-11-27T09:26:23.797Z,4.90
2022-11-27T09:28:52.508Z,5.00
2022-11-27T09:31:21.669Z,5.10
2022-11-27T09:33:50.201Z,5.20
2022-11-27T09:36:21.436Z,5.30
2022-11-27T09:38:49.534Z,5.40
2022-11-27T09:41:40.523Z,5.50
2022-11-27T09:44:20.080Z,5.60
2022-11-27T09:46:49.432Z,5.80
2022-11-27T09:49:23.870Z,5.90
2022-11-27T09:51:57.506Z,6.00
2022-11-27T09:54:27.735Z,6.00
2022-11-27T09:56:56.991Z,6.00
2022-11-27T09:59:31.685Z,6.10
2022-11-27T10:01:59.791Z,6.10
2022-11-27T10:04:30.391Z,6.20
2022-11-27T10:07:21.168Z,6.10
2022-11-27T10:10:05.196Z,6.10
2022-11-27T10:12:42.331Z,6.20
2022-11-27T10:15:18.072Z,6.20
2022-11-27T10:17:52.122Z,6.30
2022-11-27T10:20:28.860Z,6.40
2022-11-27T10:23:04.866Z,6.40
2022-11-27T10:25:39.843Z,6.40
2022-11-27T10:28:19.548Z,6.50
2022-11-27T10:30:52.631Z,6.50
2022-11-27T10:33:27.678Z,6.60
2022-11-27T10:35:56.001Z,6.70
2022-11-27T10:38:28.134Z,6.80
2022-11-27T10:41:06.438Z,6.80
2022-11-27T10:43:35.978Z,6.80
2022-11-27T10:46:10.087Z,6.80
2022-11-27T10:48:38.273Z,6.90
2022-11-27T10:51:15.323Z,6.80
2022-11-27T10:53:47.152Z,6.90
2022-11-27T10:56:45.951Z,6.90
2022-11-27T10:59:20.414Z,7.00
2022-11-27T11:01:50.192Z,7.10
2022-11-27T11:04:42.245Z,7.10
2022-11-27T11:07:26.452Z,7.10
2022-11-27T11:09:57.098Z,7.20
2022-11-27T11:12:25.650Z,7.20
2022-11-27T11:14:57.539Z,7.20
2022-11-27T11:17:27.543Z,7.20
2022-11-27T11:19:56.166Z,7.20
2022-11-27T11:22:24.899Z,7.10
2022-11-27T11:24:55.803Z,7.10
2022-11-27T11:27:29.149Z,7.00
2022-11-27T11:30:00.618Z,7.00
2022-11-27T11:32:30.908Z,6.80
2022-11-27T11:35:02.858Z,6.80
2022-11-27T11:37:36.580Z,6.90
2022-11-27T11:40:14.663Z,7.10
2022-11-27T11:42:54.163Z,7.00
2022-11-27T11:45:23.471Z,7.00
2022-11-27T11:47:54.337Z,6.80
2022-11-27T11:50:30.985Z,6.80
2022-11-27T11:53:03.416Z,6.90
2022-11-27T11:55:40.735Z,7.00
2022-11-27T11:58:31.437Z,7.00
2022-11-27T12:01:26.580Z,7.10
2022-11-27T12:04:22.320Z,7.30
2022-11-27T12:06:59.841Z,7.30
2022-11-27T12:09:39.906Z,7.20
2022-11-27T12:12:20.585Z,7.20
2022-11-27T12:14:53.612Z,7.30
2022-11-27T12:17:43.939Z,7.40
2022-11-27T12:20:18.353Z,7.50
2022-11-27T12:23:20.857Z,7.60
2022-11-27T12:25:58.775Z,7.60
2022-11-27T12:28:42.622Z,7.60
2022-11-27T12:31:22.339Z,7.50
2022-11-27T12:34:00.735Z,7.40
2022-11-27T12:36:40.009Z,7.40
2022-11-27T12:39:18.101Z,7.40
2022-11-27T12:42:19.017Z,7.50
2022-11-27T12:44:58.100Z,7.60
2022-11-27T12:47:32.016Z,7.50
2022-11-27T12:50:08.765Z,7.60
2022-11-27T12:52:41.966Z,7.30
2022-11-27T12:55:15.647Z,7.20
2022-11-27T12:57:48.757Z,7.20
2022-11-27T13:00:41.080Z,7.20
2022-11-27T13:03:36.027Z,7.10
2022-11-27T13:06:29.273Z,7.20
2022-11-27T13:09:23.721Z,7.20
2022-11-27T13:11:58.007Z,7.20
2022-11-27T13:14:28.468Z,7.30
2022-11-27T13:17:01.739Z,7.30
2022-11-27T13:19:34.280Z,7.20
2022-11-27T13:22:05.441Z,7.20
2022-11-27T13:24:35.003Z,7.30
2022-11-27T13:27:07.524Z,7.30
2022-11-27T13:29:41.380Z,7.30
2022-11-27T13:32:17.108Z,7.40
2022-11-27T13:34:47.820Z,7.40
2022-11-27T13:37:28.649Z,7.30
2022-11-27T13:40:06.609Z,7.40
2022-11-27T13:42:36.822Z,7.40
2022-11-27T13:45:11.221Z,7.40
2022-11-27T13:47:44.635Z,7.40
2022-11-27T13:50:14.876Z,7.30
2022-11-27T13:52:54.601Z,7.30
2022-11-27T13:55:28.794Z,7.30
2022-11-27T13:57:59.308Z,7.20
2022-11-27T14:00:36.720Z,7.10
2022-11-27T14:03:09.675Z,7.00
2022-11-27T14:05:41.119Z,6.90
2022-11-27T14:08:21.534Z,6.80
2022-11-27T14:10:56.785Z,6.70
2022-11-27T14:13:36.308Z,6.60
2022-11-27T14:16:09.624Z,6.60
2022-11-27T14:18:39.246Z,6.50
2022-11-27T14:21:07.184Z,6.50
2022-11-27T14:23:36.831Z,6.40
2022-11-27T14:26:13.437Z,6.40
2022-11-27T14:28:44.759Z,6.40
2022-11-27T14:31:25.758Z,6.40
2022-11-27T14:36:43.684Z,6.30
2022-11-27T14:39:22.628Z,6.30
2022-11-27T14:41:58.063Z,6.30
2022-11-27T14:44:26.059Z,6.30
2022-11-27T14:46:55.159Z,6.20
2022-11-27T14:49:27.127Z,6.10
2022-11-27T14:52:03.995Z,6.10
2022-11-27T14:54:35.503Z,6.10
2022-11-27T14:57:05.088Z,6.00
2022-11-27T14:59:33.186Z,6.00
2022-11-27T15:02:04.035Z,6.00
2022-11-27T15:04:38.542Z,5.90
2022-11-27T15:07:13.630Z,5.90
2022-11-27T15:09:46.734Z,5.80
2022-11-27T15:12:19.736Z,5.80
2022-11-27T15:14:52.140Z,5.70
2022-11-27T15:17:26.182Z,5.70
2022-11-27T15:19:56.993Z,5.60
2022-11-27T15:22:25.341Z,5.60
2022-11-27T15:25:00.474Z,5.60
2022-11-27T15:27:28.584Z,5.60
2022-11-27T15:30:18.761Z,5.50
2022-11-27T15:32:51.626Z,5.50
2022-11-27T15:35:27.306Z,5.40
2022-11-27T15:37:57.424Z,5.40
2022-11-27T15:40:30.492Z,5.40
2022-11-27T15:42:59.484Z,5.40
2022-11-27T15:45:32.608Z,5.30
2022-11-27T15:48:01.422Z,5.30
2022-11-27T15:50:31.774Z,5.30
2022-11-27T15:53:00.897Z,5.30
2022-11-27T15:55:29.130Z,5.30
2022-11-27T15:57:57.113Z,5.20
2022-11-27T16:00:25.939Z,5.20
2022-11-27T16:02:54.238Z,5.20
2022-11-27T16:05:22.335Z,5.10
2022-11-27T16:07:55.199Z,5.10
2022-11-27T16:10:23.648Z,5.10
2022-11-27T16:12:54.815Z,5.10
2022-11-27T16:15:23.867Z,5.10
2022-11-27T16:17:53.660Z,5.00
2022-11-27T16:20:21.708Z,5.00
2022-11-27T16:22:51.076Z,5.00
2022-11-27T16:25:19.207Z,5.00
2022-11-27T16:27:47.146Z,5.00
2022-11-27T16:30:15.755Z,5.00
2022-11-27T16:32:43.705Z,5.00
2022-11-27T16:35:11.688Z,5.00
2022-11-27T16:37:39.665Z,5.00
2022-11-27T16:40:10.003Z,5.00
2022-11-27T16:42:38.135Z,5.00
2022-11-27T16:45:07.153Z,5.00
2022-11-27T16:47:35.051Z,5.00
2022-11-27T16:50:03.291Z,5.00
2022-11-27T16:52:31.608Z,5.00
2022-11-27T16:54:59.953Z,4.90
2022-11-27T16:57:29.812Z,4.90
2022-11-27T16:59:57.812Z,4.90
2022-11-27T17:02:28.662Z,4.90
2022-11-27T17:04:57.438Z,4.90
2022-11-27T17:07:25.342Z,5.00
2022-11-27T17:09:53.208Z,5.00
2022-11-27T17:12:21.105Z,5.10
2022-11-27T17:14:50.602Z,5.10
2022-11-27T17:17:18.592Z,5.00
2022-11-27T17:19:48.977Z,5.00
2022-11-27T17:22:16.952Z,5.00
2022-11-27T17:24:45.036Z,4.90
2022-11-27T17:27:14.635Z,4.90
2022-11-27T17:29:43.010Z,5.00
2022-11-27T17:32:13.526Z,4.80
2022-11-27T17:34:41.664Z,4.80
2022-11-27T17:37:09.531Z,4.70
2022-11-27T17:39:37.779Z,4.60
2022-11-27T17:42:09.995Z,4.60
2022-11-27T17:44:40.852Z,4.60
2022-11-27T17:47:08.788Z,4.60
2022-11-27T17:49:38.396Z,4.70
2022-11-27T17:52:06.993Z,4.70
2022-11-27T17:54:35.199Z,4.70
2022-11-27T17:57:03.305Z,4.60
2022-11-27T17:59:31.362Z,4.60
2022-11-27T18:01:59.736Z,4.60
2022-11-27T18:04:30.744Z,4.60
2022-11-27T18:07:00.183Z,4.60
2022-11-27T18:09:28.528Z,4.60
2022-11-27T18:11:57.328Z,4.60
2022-11-27T18:14:26.180Z,4.60
2022-11-27T18:16:54.464Z,4.50
2022-11-27T18:19:22.730Z,4.50
2022-11-27T18:21:50.808Z,4.50
2022-11-27T18:24:24.660Z,4.50
2022-11-27T18:27:09.693Z,4.50
2022-11-27T18:29:39.125Z,4.50
2022-11-27T18:32:07.740Z,4.60
2022-11-27T18:34:36.051Z,4.70
2022-11-27T18:37:04.334Z,4.70
2022-11-27T18:39:33.799Z,4.70
2022-11-27T18:42:01.755Z,4.70
2022-11-27T18:44:30.111Z,4.60
2022-11-27T18:46:58.278Z,4.60
2022-11-27T18:49:27.637Z,4.60
2022-11-27T18:51:56.392Z,4.50
2022-11-27T18:54:25.096Z,4.50
2022-11-27T18:56:54.420Z,4.50
2022-11-27T18:59:22.484Z,4.50
2022-11-27T19:01:51.008Z,4.60
2022-11-27T19:04:19.395Z,4.50
2022-11-27T19:06:47.432Z,4.50
2022-11-27T19:09:16.207Z,4.50
2022-11-27T19:11:44.796Z,4.50
2022-11-27T19:14:17.054Z,4.50
2022-11-27T19:16:46.938Z,4.50
2022-11-27T19:22:09.130Z,4.50
2022-11-27T19:24:38.064Z,4.50
2022-11-27T19:27:05.992Z,4.50
2022-11-27T19:29:35.297Z,4.50
2022-11-27T19:32:03.517Z,4.50
2022-11-27T19:34:31.546Z,4.50
2022-11-27T19:36:59.522Z,4.50
2022-11-27T19:39:28.717Z,4.50
2022-11-27T19:41:57.735Z,4.50
2022-11-27T19:44:25.909Z,4.60
2022-11-27T19:46:55.334Z,4.60
2022-11-27T19:49:23.285Z,4.60
2022-11-27T19:51:51.681Z,4.60
2022-11-27T19:54:20.561Z,4.60
2022-11-27T19:56:48.619Z,4.60
2022-11-27T19:59:19.137Z,4.60
2022-11-27T20:01:49.825Z,4.60
2022-11-27T20:04:19.157Z,4.60
2022-11-27T20:06:47.102Z,4.60
2022-11-27T20:09:16.221Z,4.60
2022-11-27T20:11:44.533Z,4.60
2022-11-27T20:14:12.709Z,4.50
2022-11-27T20:16:40.765Z,4.50
2022-11-27T20:19:08.640Z,4.50
2022-11-27T20:21:39.985Z,4.50
2022-11-27T20:24:08.007Z,4.50
2022-11-27T20:26:41.290Z,4.50
2022-11-27T20:29:10.728Z,4.40
2022-11-27T20:31:39.393Z,4.50
2022-11-27T20:34:08.719Z,4.40
2022-11-27T20:36:39.972Z,4.40
2022-11-27T20:39:08.187Z,4.40
2022-11-27T20:41:36.084Z,4.40
2022-11-27T20:44:04.770Z,4.40
2022-11-27T20:46:33.804Z,4.40
2022-11-27T20:49:02.204Z,4.40
2022-11-27T20:51:33.631Z,4.40
2022-11-27T20:54:03.499Z,4.40
2022-11-27T20:56:31.807Z,4.40
2022-11-27T20:58:59.991Z,4.30
2022-11-27T21:01:30.588Z,4.30
2022-11-27T21:04:00.161Z,4.30
2022-11-27T21:06:30.180Z,4.30
2022-11-27T21:09:02.013Z,4.30
2022-11-27T21:11:32.759Z,4.30
2022-11-27T21:14:02.347Z,4.30
2022-11-27T21:16:32.183Z,4.30
2022-11-27T21:19:02.550Z,4.40
2022-11-27T21:21:31.141Z,4.40
2022-11-27T21:23:59.200Z,4.40
2022-11-27T21:26:28.954Z,4.40
2022-11-27T21:28:56.902Z,4.30
2022-11-27T21:31:27.117Z,4.40
2022-11-27T21:33:56.964Z,4.30
2022-11-27T21:36:27.401Z,4.40
2022-11-27T21:38:55.410Z,4.30
2022-11-27T21:41:23.354Z,4.30
2022-11-27T21:43:56.879Z,4.30
2022-11-27T21:46:26.591Z,4.20
2022-11-27T21:48:58.207Z,4.20
2022-11-27T21:51:26.657Z,4.20
2022-11-27T21:53:56.407Z,4.30
2022-11-27T21:56:26.552Z,4.20
2022-11-27T21:58:56.484Z,4.20
2022-11-27T22:01:26.467Z,4.30
2022-11-27T22:03:56.393Z,4.30
2022-11-27T22:06:26.920Z,4.20
2022-11-27T22:08:57.912Z,4.20
2022-11-27T22:11:28.700Z,4.20
2022-11-27T22:13:59.390Z,4.30
2022-11-27T22:16:29.500Z,4.20
2022-11-27T22:18:58.501Z,4.30
2022-11-27T22:21:28.299Z,4.30
2022-11-27T22:23:56.743Z,4.30
2022-11-27T22:26:25.927Z,4.30
2022-11-27T22:28:54.022Z,4.30
2022-11-27T22:31:24.981Z,4.30
2022-11-27T22:33:53.260Z,4.30
2022-11-27T22:36:23.042Z,4.30
2022-11-27T22:38:53.200Z,4.30
2022-11-27T22:41:23.307Z,4.30
2022-11-27T22:43:51.270Z,4.30
2022-11-27T22:46:22.481Z,4.30
2022-11-27T22:48:55.722Z,4.20
2022-11-27T22:51:24.062Z,4.20
2022-11-27T22:53:52.011Z,4.20
2022-11-27T22:56:19.971Z,4.20
2022-11-27T22:58:48.097Z,4.20
2022-11-27T23:01:18.649Z,4.20
2022-11-27T23:03:46.870Z,4.20
2022-11-27T23:06:18.228Z,4.20
2022-11-27T23:08:47.039Z,4.20
2022-11-27T23:11:16.812Z,4.20
2022-11-27T23:13:49.500Z,4.20
2022-11-27T23:16:18.758Z,4.20
2022-11-27T23:18:46.864Z,4.20
2022-11-27T23:21:17.681Z,4.20
2022-11-27T23:23:46.234Z,4.20
2022-11-27T23:26:18.164Z,4.20
2022-11-27T23:28:47.453Z,4.10
2022-11-27T23:31:33.496Z,4.10
2022-11-27T23:34:03.131Z,4.20
2022-11-27T23:36:33.850Z,4.10
2022-11-27T23:39:02.695Z,4.10
2022-11-27T23:41:31.056Z,4.10
2022-11-27T23:43:59.267Z,4.10
2022-11-27T23:46:30.099Z,4.10
2022-11-27T23:48:59.610Z,4.10
2022-11-27T23:51:29.551Z,4.10
2022-11-27T23:53:59.263Z,4.10
2022-11-27T23:56:30.047Z,4.10
2022-11-27T23:58:59.452Z,4.10
